createdAt,value
2018-05-27T00:02:22.005Z,64.53
2018-05-27T00:04:50.417Z,64.58
2018-05-27T00:07:18.761Z,64.03
2018-05-27T00:09:47.430Z,63.64
2018-05-27T00:12:16.752Z,64.23
2018-05-27T00:14:45.158Z,63.94
2018-05-27T00:17:13.480Z,64.09
2018-05-27T00:19:41.842Z,63.75
2018-05-27T00:22:10.217Z,63.14
2018-05-27T00:24:39.062Z,62.60
2018-05-27T00:27:07.737Z,62.39
2018-05-27T00:29:36.079Z,62.05
2018-05-27T00:32:04.434Z,62.10
2018-05-27T00:34:32.816Z,63.19
2018-05-27T00:37:01.149Z,62.91
2018-05-27T00:39:29.509Z,63.30
2018-05-27T00:41:57.845Z,63.32
2018-05-27T00:44:26.207Z,64.54
2018-05-27T00:46:54.552Z,65.84
2018-05-27T00:49:23.244Z,65.48
2018-05-27T00:51:51.618Z,65.09
2018-05-27T00:54:19.978Z,63.52
2018-05-27T00:56:48.322Z,62.38
2018-05-27T00:59:17.223Z,61.92
2018-05-27T01:01:45.572Z,62.65
2018-05-27T01:04:14.625Z,63.04
2018-05-27T01:06:43.321Z,63.36
2018-05-27T01:09:11.912Z,63.52
2018-05-27T01:11:40.669Z,64.34
2018-05-27T01:14:09.278Z,64.60
2018-05-27T01:16:37.745Z,63.85
2018-05-27T01:19:06.146Z,64.36
2018-05-27T01:21:35.329Z,64.16
2018-05-27T01:24:04.223Z,64.29
2018-05-27T01:26:32.552Z,64.12
2018-05-27T01:29:00.916Z,63.68
2018-05-27T01:31:29.566Z,63.88
2018-05-27T01:33:58.027Z,64.13
2018-05-27T01:36:27.687Z,64.32
2018-05-27T01:38:56.045Z,64.59
2018-05-27T01:41:24.382Z,64.32
2018-05-27T01:43:53.186Z,64.42
2018-05-27T01:46:21.561Z,64.19
2018-05-27T01:48:49.888Z,64.27
2018-05-27T01:51:18.628Z,64.31
2018-05-27T01:53:46.963Z,63.93
2018-05-27T01:56:15.818Z,63.72
2018-05-27T01:58:44.199Z,63.56
2018-05-27T02:01:12.823Z,63.79
2018-05-27T02:03:41.162Z,64.12
2018-05-27T02:06:09.568Z,64.51
2018-05-27T02:08:37.904Z,64.55
2018-05-27T02:11:06.257Z,65.55
2018-05-27T02:13:34.609Z,65.63
2018-05-27T02:16:02.972Z,66.07
2018-05-27T02:18:31.737Z,67.68
2018-05-27T02:21:00.116Z,68.34
2018-05-27T02:23:28.461Z,68.45
2018-05-27T02:25:57.616Z,68.58
2018-05-27T02:28:25.973Z,69.42
2018-05-27T02:30:54.358Z,69.29
2018-05-27T02:33:22.711Z,69.08
2018-05-27T02:35:51.510Z,69.39
2018-05-27T02:38:19.872Z,69.32
2018-05-27T02:40:48.255Z,69.43
2018-05-27T02:43:16.603Z,68.79
2018-05-27T02:45:45.641Z,68.75
2018-05-27T02:48:13.991Z,68.33
2018-05-27T02:50:42.356Z,68.11
2018-05-27T02:53:10.948Z,67.62
2018-05-27T02:55:39.318Z,66.78
2018-05-27T02:58:07.666Z,67.11
2018-05-27T03:00:36.020Z,66.67
2018-05-27T03:03:04.386Z,66.83
2018-05-27T03:05:32.753Z,66.42
2018-05-27T03:08:01.096Z,66.57
2018-05-27T03:10:29.485Z,66.76
2018-05-27T03:12:58.211Z,66.69
2018-05-27T03:15:27.418Z,66.26
2018-05-27T03:17:55.769Z,66.45
2018-05-27T03:20:24.173Z,67.45
2018-05-27T03:22:52.521Z,66.71
2018-05-27T03:25:21.005Z,67.96
2018-05-27T03:27:49.340Z,67.44
2018-05-27T03:30:18.065Z,66.85
2018-05-27T03:32:46.402Z,66.17
2018-05-27T03:35:15.376Z,65.87
2018-05-27T03:37:43.776Z,65.24
2018-05-27T03:40:12.420Z,65.01
2018-05-27T03:42:41.667Z,64.89
2018-05-27T03:45:11.113Z,65.09
2018-05-27T03:47:39.450Z,65.26
2018-05-27T03:50:07.833Z,64.85
2018-05-27T03:52:37.377Z,64.70
2018-05-27T03:55:06.062Z,64.77
2018-05-27T03:57:34.411Z,64.82
2018-05-27T04:00:02.772Z,64.85
2018-05-27T04:02:33.880Z,64.88
2018-05-27T04:05:14.983Z,65.25
2018-05-27T04:07:55.534Z,64.98
2018-05-27T04:10:23.902Z,65.03
2018-05-27T04:12:52.241Z,66.24
2018-05-27T04:15:20.609Z,66.37
2018-05-27T04:17:49.953Z,65.98
2018-05-27T04:20:18.307Z,66.01
2018-05-27T04:22:47.565Z,65.94
2018-05-27T04:25:15.931Z,66.19
2018-05-27T04:27:44.307Z,65.81
2018-05-27T04:30:12.693Z,65.69
2018-05-27T04:32:41.037Z,65.67
2018-05-27T04:35:09.445Z,66.10
2018-05-27T04:37:38.647Z,65.61
2018-05-27T04:40:07.014Z,65.82
2018-05-27T04:42:35.367Z,65.45
2018-05-27T04:45:03.732Z,64.97
2018-05-27T04:47:32.440Z,65.01
2018-05-27T04:50:00.812Z,64.78
2018-05-27T04:52:29.148Z,64.55
2018-05-27T04:54:57.522Z,64.44
2018-05-27T04:57:26.306Z,64.37
2018-05-27T04:59:54.628Z,65.00
2018-05-27T05:02:23.362Z,64.71
2018-05-27T05:04:52.081Z,64.56
2018-05-27T05:07:20.407Z,64.66
2018-05-27T05:09:48.754Z,64.73
2018-05-27T05:12:17.114Z,65.10
2018-05-27T05:14:45.479Z,65.46
2018-05-27T05:17:14.169Z,65.63
2018-05-27T05:19:42.517Z,64.01
2018-05-27T05:22:10.883Z,63.69
2018-05-27T05:24:39.204Z,63.26
2018-05-27T05:27:07.576Z,63.65
2018-05-27T05:29:36.402Z,63.31
2018-05-27T05:32:04.760Z,62.78
2018-05-27T05:34:33.109Z,62.96
2018-05-27T05:37:01.474Z,62.75
2018-05-27T05:39:30.627Z,63.07
2018-05-27T05:41:59.262Z,62.84
2018-05-27T05:44:27.584Z,63.29
2018-05-27T05:46:55.951Z,63.22
2018-05-27T05:49:24.280Z,63.55
2018-05-27T05:51:52.648Z,62.55
2018-05-27T05:54:21.871Z,62.17
2018-05-27T05:56:50.234Z,60.96
2018-05-27T05:59:18.564Z,60.59
2018-05-27T06:01:46.952Z,60.86
2018-05-27T06:04:15.292Z,59.78
2018-05-27T06:06:43.800Z,58.89
2018-05-27T06:09:12.593Z,56.66
2018-05-27T06:11:40.980Z,56.29
2018-05-27T06:14:09.301Z,56.18
2018-05-27T06:16:37.661Z,55.52
2018-05-27T06:19:07.906Z,55.77
2018-05-27T06:21:36.290Z,55.88
2018-05-27T06:24:05.038Z,55.63
2018-05-27T06:26:34.202Z,55.37
2018-05-27T06:29:02.979Z,54.57
2018-05-27T06:31:31.344Z,54.78
2018-05-27T06:33:59.721Z,54.79
2018-05-27T06:36:28.052Z,53.73
2018-05-27T06:38:56.401Z,53.38
2018-05-27T06:41:25.065Z,53.01
2018-05-27T06:43:53.435Z,52.50
2018-05-27T06:46:21.769Z,52.75
2018-05-27T06:48:50.152Z,51.14
2018-05-27T06:51:18.548Z,50.83
2018-05-27T06:53:46.867Z,50.81
2018-05-27T06:56:15.217Z,50.33
2018-05-27T06:58:43.581Z,51.09
2018-05-27T07:01:11.922Z,50.76
2018-05-27T07:03:41.133Z,50.35
2018-05-27T07:06:09.457Z,50.17
2018-05-27T07:08:38.208Z,49.73
2018-05-27T07:11:06.548Z,49.26
2018-05-27T07:13:35.265Z,50.05
2018-05-27T07:16:04.379Z,49.74
2018-05-27T07:18:32.734Z,49.50
2018-05-27T07:21:01.068Z,49.93
2018-05-27T07:23:29.811Z,49.04
2018-05-27T07:25:58.153Z,48.18
2018-05-27T07:28:26.510Z,48.80
2018-05-27T07:30:55.243Z,48.34
2018-05-27T07:33:23.593Z,48.16
2018-05-27T07:35:51.926Z,47.68
2018-05-27T07:38:20.437Z,48.29
2018-05-27T07:40:48.788Z,47.90
2018-05-27T07:43:17.909Z,47.70
2018-05-27T07:45:46.539Z,48.75
2018-05-27T07:48:14.863Z,48.09
2018-05-27T07:50:43.257Z,47.10
2018-05-27T07:53:11.641Z,46.44
2018-05-27T07:55:40.029Z,46.86
2018-05-27T07:58:08.357Z,45.75
2018-05-27T08:00:37.640Z,45.53
2018-05-27T08:03:05.981Z,46.86
2018-05-27T08:05:34.337Z,46.06
2018-05-27T08:08:02.674Z,46.96
2018-05-27T08:10:31.036Z,48.48
2018-05-27T08:12:59.356Z,47.24
2018-05-27T08:15:28.082Z,46.34
2018-05-27T08:17:56.445Z,45.52
2018-05-27T08:20:25.073Z,45.50
2018-05-27T08:22:53.448Z,46.05
2018-05-27T08:25:21.804Z,46.89
2018-05-27T08:27:50.382Z,46.63
2018-05-27T08:30:19.533Z,45.79
2018-05-27T08:32:47.898Z,45.69
2018-05-27T08:35:16.255Z,46.84
2018-05-27T08:37:45.114Z,47.03
2018-05-27T08:40:14.466Z,46.33
2018-05-27T08:42:42.875Z,45.22
2018-05-27T08:45:11.262Z,45.58
2018-05-27T08:47:40.439Z,42.18
2018-05-27T08:50:08.825Z,43.45
2018-05-27T08:52:38.494Z,42.38
2018-05-27T08:55:06.869Z,41.31
2018-05-27T08:57:36.019Z,40.64
2018-05-27T09:00:05.041Z,43.47
2018-05-27T09:02:33.362Z,44.17
2018-05-27T09:05:02.040Z,41.39
2018-05-27T09:07:30.385Z,40.62
2018-05-27T09:09:58.732Z,41.23
2018-05-27T09:12:27.321Z,40.62
2018-05-27T09:14:56.501Z,40.85
2018-05-27T09:17:24.869Z,40.31
2018-05-27T09:19:54.174Z,40.41
2018-05-27T09:22:22.837Z,41.17
2018-05-27T09:24:51.233Z,41.75
2018-05-27T09:27:22.154Z,42.26
2018-05-27T09:29:50.482Z,41.52
2018-05-27T09:32:19.203Z,40.23
2018-05-27T09:34:48.419Z,39.74
2018-05-27T09:37:16.786Z,41.36
2018-05-27T09:39:45.126Z,41.38
2018-05-27T09:42:13.867Z,43.20
2018-05-27T09:44:42.218Z,42.96
2018-05-27T09:47:11.027Z,42.43
2018-05-27T09:49:39.501Z,42.44
2018-05-27T09:52:08.488Z,42.54
2018-05-27T09:54:39.757Z,42.55
2018-05-27T09:57:08.126Z,42.44
2018-05-27T09:59:36.460Z,40.08
2018-05-27T10:02:04.863Z,39.01
2018-05-27T10:04:33.213Z,39.23
2018-05-27T10:07:01.573Z,37.62
2018-05-27T10:09:30.324Z,37.07
2018-05-27T10:12:00.222Z,36.34
2018-05-27T10:14:28.610Z,37.15
2018-05-27T10:16:57.025Z,35.57
2018-05-27T10:19:25.359Z,35.44
2018-05-27T10:21:53.720Z,36.95
2018-05-27T10:24:22.464Z,35.83
2018-05-27T10:26:50.844Z,36.10
2018-05-27T10:29:19.176Z,36.82
2018-05-27T10:31:47.568Z,35.29
2018-05-27T10:34:15.917Z,34.42
2018-05-27T10:36:44.301Z,35.37
2018-05-27T10:39:12.633Z,35.59
2018-05-27T10:41:41.013Z,35.13
2018-05-27T10:44:09.363Z,36.44
2018-05-27T10:46:37.732Z,36.95
2018-05-27T10:49:06.063Z,35.18
2018-05-27T10:51:34.438Z,35.40
2018-05-27T10:54:03.321Z,34.72
2018-05-27T10:56:31.686Z,34.51
2018-05-27T10:59:00.957Z,34.35
2018-05-27T11:01:29.330Z,37.00
2018-05-27T11:03:57.653Z,35.70
2018-05-27T11:06:26.017Z,33.94
2018-05-27T11:08:54.351Z,33.94
2018-05-27T11:11:23.531Z,33.70
2018-05-27T11:13:51.889Z,33.40
2018-05-27T11:16:20.232Z,32.87
2018-05-27T11:18:49.289Z,33.76
2018-05-27T11:21:17.624Z,35.15
2018-05-27T11:23:45.978Z,35.75
2018-05-27T11:26:14.358Z,37.81
2018-05-27T11:28:42.854Z,36.79
2018-05-27T11:31:11.280Z,37.40
2018-05-27T11:33:39.634Z,36.46
2018-05-27T11:36:08.038Z,34.27
2018-05-27T11:38:36.766Z,35.19
2018-05-27T11:41:05.599Z,33.16
2018-05-27T11:43:33.954Z,33.55
2018-05-27T11:46:02.715Z,31.63
2018-05-27T11:48:32.027Z,33.52
2018-05-27T11:51:00.365Z,33.17
2018-05-27T11:53:28.745Z,32.46
2018-05-27T11:55:57.078Z,33.80
2018-05-27T11:58:25.847Z,34.09
2018-05-27T12:00:54.193Z,30.98
2018-05-27T12:03:22.577Z,30.02
2018-05-27T12:05:50.915Z,29.42
2018-05-27T12:08:19.887Z,29.13
2018-05-27T12:10:48.310Z,30.35
2018-05-27T12:13:16.674Z,31.17
2018-05-27T12:15:45.007Z,31.78
2018-05-27T12:18:13.377Z,33.55
2018-05-27T12:20:43.018Z,33.47
2018-05-27T12:23:11.364Z,34.28
2018-05-27T12:25:39.701Z,35.74
2018-05-27T12:28:08.061Z,34.56
2018-05-27T12:30:36.401Z,34.46
2018-05-27T12:33:06.608Z,34.60
2018-05-27T12:35:34.932Z,34.04
2018-05-27T12:38:03.300Z,35.42
2018-05-27T12:40:31.628Z,34.08
2018-05-27T12:43:00.889Z,34.68
2018-05-27T12:45:29.538Z,33.98
2018-05-27T12:47:57.949Z,34.36
2018-05-27T12:50:26.280Z,31.87
2018-05-27T12:52:54.634Z,31.79
2018-05-27T12:55:22.971Z,32.00
2018-05-27T12:57:51.862Z,32.30
2018-05-27T13:00:20.307Z,33.40
2018-05-27T13:02:49.005Z,33.31
2018-05-27T13:05:18.089Z,33.33
2018-05-27T13:07:46.460Z,33.23
2018-05-27T13:10:14.802Z,33.12
2018-05-27T13:12:43.160Z,31.89
2018-05-27T13:15:11.484Z,33.28
2018-05-27T13:17:39.852Z,32.68
2018-05-27T13:20:08.482Z,31.73
2018-05-27T13:22:36.829Z,31.19
2018-05-27T13:25:05.173Z,29.81
2018-05-27T13:27:33.525Z,30.49
2018-05-27T13:30:01.886Z,30.79
2018-05-27T13:32:30.227Z,31.92
2018-05-27T13:34:58.549Z,32.85
2018-05-27T13:37:26.892Z,31.62
2018-05-27T13:39:55.267Z,31.50
2018-05-27T13:42:25.585Z,31.12
2018-05-27T13:44:53.920Z,29.73
2018-05-27T13:47:22.288Z,30.40
2018-05-27T13:49:50.921Z,29.12
2018-05-27T13:52:19.275Z,32.13
2018-05-27T13:54:47.611Z,32.82
2018-05-27T13:57:15.956Z,31.31
2018-05-27T13:59:44.326Z,31.15
2018-05-27T14:02:12.682Z,30.42
2018-05-27T14:04:41.069Z,29.38
2018-05-27T14:07:10.129Z,29.13
2018-05-27T14:09:38.466Z,29.23
2018-05-27T14:12:06.797Z,28.87
2018-05-27T14:14:35.909Z,28.69
2018-05-27T14:17:04.266Z,30.68
2018-05-27T14:19:33.040Z,33.16
2018-05-27T14:22:01.736Z,32.04
2018-05-27T14:24:30.416Z,31.67
2018-05-27T14:26:59.563Z,30.90
2018-05-27T14:29:27.930Z,31.09
2018-05-27T14:31:56.333Z,29.28
2018-05-27T14:34:24.681Z,28.73
2018-05-27T14:36:53.012Z,28.79
2018-05-27T14:39:21.375Z,27.67
2018-05-27T14:41:49.835Z,26.90
2018-05-27T14:44:18.186Z,26.48
2018-05-27T14:46:46.958Z,27.08
2018-05-27T14:49:15.317Z,28.70
2018-05-27T14:51:43.670Z,27.29
2018-05-27T14:54:12.182Z,26.27
2018-05-27T14:56:40.519Z,26.75
2018-05-27T14:59:08.883Z,28.36
2018-05-27T15:01:37.218Z,28.06
2018-05-27T15:04:05.621Z,27.23
2018-05-27T15:06:34.644Z,26.50
2018-05-27T15:09:03.020Z,27.14
2018-05-27T15:11:31.366Z,27.37
2018-05-27T15:13:59.743Z,27.50
2018-05-27T15:16:28.113Z,29.13
2018-05-27T15:18:57.389Z,28.65
2018-05-27T15:21:25.756Z,28.18
2018-05-27T15:23:54.102Z,28.61
2018-05-27T15:26:22.672Z,29.16
2018-05-27T15:28:51.024Z,29.35
2018-05-27T15:31:19.358Z,30.40
2018-05-27T15:33:47.732Z,30.62
2018-05-27T15:36:16.161Z,30.37
2018-05-27T15:38:44.509Z,31.05
2018-05-27T15:41:13.249Z,31.21
2018-05-27T15:43:42.340Z,31.15
2018-05-27T15:46:10.670Z,31.23
2018-05-27T15:48:39.033Z,30.69
2018-05-27T15:51:08.281Z,30.33
2018-05-27T15:53:36.634Z,29.99
2018-05-27T15:56:04.975Z,30.14
2018-05-27T15:58:33.338Z,30.54
2018-05-27T16:01:01.674Z,30.18
2018-05-27T16:03:30.039Z,29.84
2018-05-27T16:05:59.289Z,30.97
2018-05-27T16:08:27.644Z,33.05
2018-05-27T16:10:55.964Z,31.06
2018-05-27T16:13:24.331Z,33.25
2018-05-27T16:15:52.745Z,32.95
2018-05-27T16:18:21.088Z,30.53
2018-05-27T16:20:49.470Z,31.12
2018-05-27T16:23:17.814Z,31.87
2018-05-27T16:25:46.153Z,31.96
2018-05-27T16:28:14.519Z,31.14
2018-05-27T16:30:42.857Z,31.46
2018-05-27T16:33:11.209Z,33.40
2018-05-27T16:35:39.554Z,38.96
2018-05-27T16:38:08.430Z,41.14
2018-05-27T16:40:37.602Z,40.80
2018-05-27T16:43:05.952Z,40.30
2018-05-27T16:45:34.321Z,40.45
2018-05-27T16:48:02.680Z,40.25
2018-05-27T16:50:31.009Z,40.30
2018-05-27T16:52:59.612Z,40.28
2018-05-27T16:55:27.939Z,40.13
2018-05-27T16:57:56.284Z,41.05
2018-05-27T17:00:24.634Z,41.25
2018-05-27T17:02:53.212Z,41.01
2018-05-27T17:05:21.767Z,41.14
2018-05-27T17:07:50.585Z,40.93
2018-05-27T17:10:19.244Z,41.47
2018-05-27T17:12:47.607Z,41.33
2018-05-27T17:15:15.938Z,42.25
2018-05-27T17:17:45.030Z,42.25
2018-05-27T17:20:13.386Z,42.44
2018-05-27T17:22:41.724Z,42.77
2018-05-27T17:25:10.086Z,42.15
2018-05-27T17:27:38.457Z,42.04
2018-05-27T17:30:06.825Z,42.18
2018-05-27T17:32:35.561Z,42.56
2018-05-27T17:35:03.933Z,42.67
2018-05-27T17:37:33.171Z,43.17
2018-05-27T17:40:01.635Z,43.66
2018-05-27T17:42:29.961Z,43.59
2018-05-27T17:44:58.306Z,43.61
2018-05-27T17:47:26.938Z,43.52
2018-05-27T17:49:55.342Z,44.05
2018-05-27T17:52:23.672Z,44.26
2018-05-27T17:54:52.852Z,44.37
2018-05-27T17:57:21.633Z,44.17
2018-05-27T17:59:49.981Z,44.75
2018-05-27T18:02:18.318Z,45.52
2018-05-27T18:04:46.722Z,45.58
2018-05-27T18:07:15.421Z,45.38
2018-05-27T18:09:43.784Z,46.36
2018-05-27T18:12:12.117Z,46.40
2018-05-27T18:14:40.508Z,46.54
2018-05-27T18:17:08.846Z,47.30
2018-05-27T18:19:37.322Z,46.52
2018-05-27T18:22:06.021Z,46.77
2018-05-27T18:24:34.382Z,46.79
2018-05-27T18:27:02.749Z,47.29
2018-05-27T18:29:31.106Z,47.62
2018-05-27T18:31:59.964Z,47.92
2018-05-27T18:34:29.017Z,47.87
2018-05-27T18:36:57.377Z,47.67
2018-05-27T18:39:25.739Z,48.57
2018-05-27T18:41:54.060Z,48.42
2018-05-27T18:44:22.969Z,49.20
2018-05-27T18:46:52.226Z,48.88
2018-05-27T18:49:20.591Z,48.84
2018-05-27T18:51:48.930Z,49.32
2018-05-27T18:54:17.303Z,49.44
2018-05-27T18:56:45.672Z,49.83
2018-05-27T18:59:14.033Z,50.39
2018-05-27T19:01:43.084Z,49.50
2018-05-27T19:04:11.442Z,49.66
2018-05-27T19:06:39.781Z,49.24
2018-05-27T19:09:08.176Z,49.36
2018-05-27T19:11:36.851Z,49.43
2018-05-27T19:14:05.479Z,49.35
2018-05-27T19:16:33.937Z,49.58
2018-05-27T19:19:02.303Z,48.82
2018-05-27T19:21:30.638Z,49.18
2018-05-27T19:23:59.009Z,49.51
2018-05-27T19:26:28.108Z,49.81
2018-05-27T19:28:56.466Z,49.82
2018-05-27T19:31:25.422Z,50.08
2018-05-27T19:33:54.412Z,50.71
2018-05-27T19:36:23.075Z,52.80
2018-05-27T19:38:51.432Z,53.08
2018-05-27T19:41:20.569Z,53.96
2018-05-27T19:43:48.953Z,55.17
2018-05-27T19:46:18.222Z,53.88
2018-05-27T19:48:46.693Z,54.40
2018-05-27T19:51:15.029Z,53.45
2018-05-27T19:53:43.381Z,54.58
2018-05-27T19:56:11.710Z,55.98
2018-05-27T19:58:40.061Z,57.52
2018-05-27T20:01:08.393Z,59.80
2018-05-27T20:03:36.758Z,61.13
2018-05-27T20:06:05.109Z,62.57
2018-05-27T20:08:35.033Z,63.69
2018-05-27T20:11:04.465Z,62.15
2018-05-27T20:13:33.243Z,64.98
2018-05-27T20:16:01.569Z,65.00
2018-05-27T20:18:29.914Z,65.96
2018-05-27T20:20:58.277Z,67.65
2018-05-27T20:23:26.949Z,67.89
2018-05-27T20:25:55.359Z,71.19
2018-05-27T20:28:23.702Z,69.72
2018-05-27T20:30:54.955Z,66.43
2018-05-27T20:33:23.415Z,68.22
2018-05-27T20:35:52.872Z,69.68
2018-05-27T20:38:21.843Z,71.38
2018-05-27T20:40:51.053Z,73.08
2018-05-27T20:43:19.790Z,72.47
2018-05-27T20:45:48.165Z,72.02
2018-05-27T20:48:16.805Z,72.20
2018-05-27T20:50:45.168Z,72.06
2018-05-27T20:53:13.500Z,76.35
2018-05-27T20:55:41.853Z,76.25
2018-05-27T20:58:10.659Z,76.93
2018-05-27T21:00:39.028Z,77.01
2018-05-27T21:03:07.795Z,76.69
2018-05-27T21:05:36.516Z,73.97
2018-05-27T21:08:04.862Z,75.73
2018-05-27T21:10:33.223Z,76.96
2018-05-27T21:13:01.555Z,77.01
2018-05-27T21:15:29.909Z,76.85
2018-05-27T21:17:58.254Z,76.25
2018-05-27T21:20:26.627Z,76.63
2018-05-27T21:22:55.201Z,78.29
2018-05-27T21:25:23.593Z,76.83
2018-05-27T21:27:51.933Z,76.54
2018-05-27T21:30:21.168Z,75.49
2018-05-27T21:32:49.498Z,75.78
2018-05-27T21:35:17.844Z,73.92
2018-05-27T21:37:46.185Z,75.91
2018-05-27T21:40:14.945Z,74.17
2018-05-27T21:42:43.324Z,73.90
2018-05-27T21:45:12.943Z,75.78
2018-05-27T21:47:41.507Z,75.24
2018-05-27T21:50:10.608Z,74.04
2018-05-27T21:52:38.940Z,78.30
2018-05-27T21:55:08.502Z,77.88
2018-05-27T21:57:37.688Z,77.70
2018-05-27T22:00:06.303Z,77.77
2018-05-27T22:02:36.506Z,77.53
2018-05-27T22:05:04.895Z,78.30
2018-05-27T22:07:33.655Z,78.79
2018-05-27T22:10:02.078Z,79.86
2018-05-27T22:12:30.476Z,79.04
2018-05-27T22:14:59.724Z,76.78
2018-05-27T22:17:28.617Z,76.11
2018-05-27T22:19:57.085Z,76.14
2018-05-27T22:22:25.482Z,77.54
2018-05-27T22:24:56.078Z,78.22
2018-05-27T22:27:25.165Z,80.00
2018-05-27T22:29:53.533Z,79.70
2018-05-27T22:32:21.886Z,80.91
2018-05-27T22:34:50.259Z,81.18
2018-05-27T22:37:19.542Z,81.52
2018-05-27T22:39:48.312Z,80.97
2018-05-27T22:42:17.298Z,81.12
2018-05-27T22:44:45.668Z,80.81
2018-05-27T22:47:15.056Z,79.91
2018-05-27T22:49:44.727Z,78.96
2018-05-27T22:52:13.057Z,78.94
2018-05-27T22:54:41.734Z,79.14
2018-05-27T22:57:10.190Z,79.27
2018-05-27T22:59:39.056Z,79.13
2018-05-27T23:02:07.644Z,78.30
2018-05-27T23:04:36.790Z,78.25
2018-05-27T23:07:05.981Z,78.68
2018-05-27T23:09:34.389Z,78.41
2018-05-27T23:12:03.554Z,78.26
2018-05-27T23:14:31.925Z,78.42
2018-05-27T23:17:00.399Z,78.46
2018-05-27T23:19:29.780Z,78.07
2018-05-27T23:21:58.547Z,77.77
2018-05-27T23:24:26.938Z,78.03
2018-05-27T23:26:55.297Z,78.76
2018-05-27T23:29:23.681Z,79.02
2018-05-27T23:31:52.016Z,79.54
2018-05-27T23:34:20.381Z,79.91
2018-05-27T23:36:50.407Z,80.33
2018-05-27T23:39:18.741Z,79.62
2018-05-27T23:41:47.342Z,79.43
2018-05-27T23:44:15.706Z,79.63
2018-05-27T23:46:44.867Z,79.37
2018-05-27T23:49:14.118Z,79.74
2018-05-27T23:51:43.285Z,80.00
2018-05-27T23:54:11.731Z,80.10
2018-05-27T23:56:40.107Z,80.33
2018-05-27T23:59:08.454Z,80.85
